パリ/シャルル・ド・ゴール の空港の天気 - METARとTAF

シャルル・ド・ゴール国際空港(パリ) ( LFPG / CDG ) - フランス Paris
飛行場実況気象(Metar)
観測時間08/05 09:30 CEST (08/05 07:30 UTC)
風向・風速南 3m/s
視程10km以上
天気現象
なし
気温21℃
湿度43%
気圧1017hPa
METARLFPG 050730Z 17006KT 130V190 CAVOK 21/08 Q1017 NOSIG
過去の天気等 Google飛行場航空写真 Wunderground天気予報

過去48時間のMETAR

飛行場予報(TAF)
発表時間: 8/05 07:00 CEST (8/05 05:00 UTC)
予報対象時間: 5日8時 CEST ~ 6日14時 CEST
風向・風速南東 3m/s
視程10km以上
なし
TAF LFPG 050500Z 0506/0612 14005KT CAVOK TX33/0612Z TN16/0506Z